Time;durP1;ratioP1;P1;durP2;ratioP2;P2;SDS_P1;SDS_P2;PMS_P1;PMS_P2;Temp;Humidity;BMP_temperature;BMP_pressure;BME280_temperature;BME280_humidity;BME280_pressure;Samples;Min_cycle;Max_cycle;Signal;HPM_P1;HPM_P2
2022/03/19 00:00:33;;;;;;;16.87;10.60;;;;;;;;;;5012616;28;20411;-50
2022/03/19 00:02:59;;;;;;;17.08;10.20;;;;;;;;;;5012721;28;20442;-48
2022/03/19 00:05:25;;;;;;;17.27;10.80;;;;;;;;;;5012952;28;20531;-46
2022/03/19 00:07:52;;;;;;;17.33;10.95;;;;;;;;;;5012662;28;20423;-46
2022/03/19 00:10:19;;;;;;;14.93;10.90;;;;;;;;;;5012643;28;20191;-46
2022/03/19 00:12:46;;;;;;;15.27;11.45;;;;;;;;;;5012853;28;20199;-47
2022/03/19 00:15:12;;;;;;;22.57;10.97;;;;;;;;;;5012800;28;20171;-46
2022/03/19 00:17:38;;;;;;;14.60;10.70;;;;;;;;;;5012257;28;20461;-47
2022/03/19 00:20:04;;;;;;;14.88;9.95;;;;;;;;;;4994782;28;20401;-46
2022/03/19 00:22:34;;;;;;;14.70;11.40;;;;;;;;;;5012272;28;20231;-47
2022/03/19 00:25:00;;;;;;;12.85;10.60;;;;;;;;;;5012728;28;20243;-47
2022/03/19 00:27:27;;;;;;;14.60;10.00;;;;;;;;;;5012546;28;20682;-47
2022/03/19 00:29:52;;;;;;;19.98;11.45;;;;;;;;;;5012142;28;20303;-46
2022/03/19 00:32:19;;;;;;;14.00;10.90;;;;;;;;;;5012093;28;20221;-46
2022/03/19 00:34:45;;;;;;;13.30;10.02;;;;;;;;;;5012649;28;20461;-46
2022/03/19 00:37:11;;;;;;;17.63;12.90;;;;;;;;;;5012452;28;20649;-47
2022/03/19 00:39:37;;;;;;;17.52;12.10;;;;;;;;;;5012288;28;20478;-46
2022/03/19 00:42:03;;;;;;;19.00;11.57;;;;;;;;;;5012038;28;20188;-47
2022/03/19 00:47:32;;;;;;;12.77;10.60;;;;;;;;;;5007405;28;20222;-46
2022/03/19 00:49:58;;;;;;;14.50;10.70;;;;;;;;;;5011687;28;20173;-46
2022/03/19 00:52:24;;;;;;;16.43;10.53;;;;;;;;;;5012375;28;20434;-47
2022/03/19 00:54:50;;;;;;;17.73;11.30;;;;;;;;;;5012220;28;20395;-47
2022/03/19 00:57:16;;;;;;;14.17;9.93;;;;;;;;;;5012307;28;20997;-46
2022/03/19 00:59:42;;;;;;;17.00;9.80;;;;;;;;;;5011872;28;20898;-47
2022/03/19 01:02:08;;;;;;;20.95;11.70;;;;;;;;;;5012201;28;20415;-49
2022/03/19 01:04:34;;;;;;;18.55;11.15;;;;;;;;;;5011435;28;20176;-48
2022/03/19 01:07:00;;;;;;;13.23;11.40;;;;;;;;;;5012144;28;20180;-49
2022/03/19 01:09:26;;;;;;;13.27;11.20;;;;;;;;;;5011865;28;20407;-46
2022/03/19 01:11:52;;;;;;;12.57;9.93;;;;;;;;;;5011945;28;20423;-46
2022/03/19 01:14:18;;;;;;;13.18;10.80;;;;;;;;;;5012090;28;20461;-46
2022/03/19 01:16:45;;;;;;;17.20;10.30;;;;;;;;;;5012504;28;20205;-47
2022/03/19 01:19:11;;;;;;;14.90;11.20;;;;;;;;;;5011891;28;20739;-48
2022/03/19 01:21:37;;;;;;;14.33;10.80;;;;;;;;;;5011776;28;20565;-48
2022/03/19 01:24:04;;;;;;;11.10;10.00;;;;;;;;;;5011936;28;20395;-47
2022/03/19 01:26:30;;;;;;;17.10;10.77;;;;;;;;;;5012195;28;20395;-47
2022/03/19 01:28:56;;;;;;;16.75;11.93;;;;;;;;;;5011981;28;20226;-47
2022/03/19 01:31:25;;;;;;;14.85;11.20;;;;;;;;;;5011729;28;20196;-47
2022/03/19 01:33:52;;;;;;;20.05;11.40;;;;;;;;;;5011703;28;20542;-47
2022/03/19 01:36:18;;;;;;;17.05;11.32;;;;;;;;;;5011822;28;20258;-50
2022/03/19 01:38:44;;;;;;;19.50;11.80;;;;;;;;;;5011899;28;20204;-46
2022/03/19 01:41:10;;;;;;;21.83;11.20;;;;;;;;;;5011545;28;20489;-47
2022/03/19 01:43:39;;;;;;;21.20;12.30;;;;;;;;;;5011828;28;20172;-46
2022/03/19 01:46:07;;;;;;;16.45;11.20;;;;;;;;;;5012267;28;20894;-48
2022/03/19 01:48:33;;;;;;;19.20;12.25;;;;;;;;;;5011684;28;20512;-49
2022/03/19 01:50:59;;;;;;;19.92;10.68;;;;;;;;;;5011393;28;20188;-48
2022/03/19 01:53:25;;;;;;;15.93;11.10;;;;;;;;;;5011739;28;20674;-47
2022/03/19 01:55:53;;;;;;;16.53;11.40;;;;;;;;;;5011650;28;20251;-48
2022/03/19 01:58:20;;;;;;;15.25;10.75;;;;;;;;;;5011690;28;20449;-48
2022/03/19 02:00:46;;;;;;;14.73;11.05;;;;;;;;;;5010963;28;20192;-47
2022/03/19 02:03:13;;;;;;;19.97;10.70;;;;;;;;;;5011009;28;20266;-47
2022/03/19 02:05:39;;;;;;;18.85;11.10;;;;;;;;;;5011237;28;20966;-47
2022/03/19 02:08:05;;;;;;;15.52;10.50;;;;;;;;;;5011304;28;20295;-47
2022/03/19 02:10:34;;;;;;;14.80;10.77;;;;;;;;;;5011445;28;20652;-46
2022/03/19 02:13:00;;;;;;;13.27;11.25;;;;;;;;;;5011568;28;20180;-47
2022/03/19 02:15:26;;;;;;;10.95;9.85;;;;;;;;;;5012115;28;20183;-46
2022/03/19 02:17:52;;;;;;;17.27;10.67;;;;;;;;;;5015278;28;20203;-46
2022/03/19 02:20:18;;;;;;;13.57;10.40;;;;;;;;;;5014850;28;20403;-46
2022/03/19 02:25:34;;;;;;;15.75;11.05;;;;;;;;;;5015433;28;20220;-46
2022/03/19 02:25:36;;;;;;;13.60;10.52;;;;;;;;;;5015030;28;20204;-46
2022/03/19 02:28:02;;;;;;;14.35;10.20;;;;;;;;;;5014958;28;20176;-46
2022/03/19 02:30:28;;;;;;;16.20;11.63;;;;;;;;;;5014882;28;20169;-46
2022/03/19 02:32:54;;;;;;;18.23;13.57;;;;;;;;;;5015046;28;20192;-47
2022/03/19 02:35:20;;;;;;;19.13;11.23;;;;;;;;;;5015103;28;20172;-47
2022/03/19 02:37:47;;;;;;;23.67;12.13;;;;;;;;;;5014977;28;20203;-47
2022/03/19 02:40:14;;;;;;;16.75;10.15;;;;;;;;;;5014518;28;20410;-47
2022/03/19 02:42:40;;;;;;;22.55;11.52;;;;;;;;;;5014680;28;20192;-48
2022/03/19 02:45:07;;;;;;;15.93;11.95;;;;;;;;;;5014720;28;20192;-48
2022/03/19 02:47:33;;;;;;;15.07;11.27;;;;;;;;;;5014797;28;20177;-47
2022/03/19 02:50:00;;;;;;;13.90;10.50;;;;;;;;;;5014399;28;20164;-46
2022/03/19 02:52:26;;;;;;;14.45;10.15;;;;;;;;;;5014489;28;20235;-47
2022/03/19 02:54:52;;;;;;;18.23;11.80;;;;;;;;;;5014408;28;20251;-47
2022/03/19 02:57:18;;;;;;;17.10;11.95;;;;;;;;;;5014303;28;20215;-47
2022/03/19 02:59:44;;;;;;;15.63;11.43;;;;;;;;;;5014429;28;20172;-47
2022/03/19 03:02:10;;;;;;;13.73;10.90;;;;;;;;;;5014130;28;20242;-47
2022/03/19 03:04:36;;;;;;;19.38;11.95;;;;;;;;;;5014342;28;20490;-46
2022/03/19 03:07:03;;;;;;;17.00;11.25;;;;;;;;;;5014303;28;20203;-46
2022/03/19 03:09:30;;;;;;;18.05;12.52;;;;;;;;;;5013907;28;20227;-50
2022/03/19 03:11:58;;;;;;;16.38;11.75;;;;;;;;;;5014034;28;20203;-50
2022/03/19 03:14:24;;;;;;;17.55;12.20;;;;;;;;;;5014259;28;20214;-46
2022/03/19 03:16:52;;;;;;;21.33;11.90;;;;;;;;;;5014014;28;20164;-48
2022/03/19 03:19:18;;;;;;;20.20;11.20;;;;;;;;;;5013984;28;20228;-46
2022/03/19 03:21:45;;;;;;;19.70;11.85;;;;;;;;;;5013920;28;20189;-46
2022/03/19 03:24:11;;;;;;;21.17;12.30;;;;;;;;;;5013848;28;20179;-46
2022/03/19 03:26:38;;;;;;;20.17;11.70;;;;;;;;;;5013804;28;20675;-48
2022/03/19 03:29:05;;;;;;;16.23;11.38;;;;;;;;;;5013502;28;20637;-47
2022/03/19 03:31:32;;;;;;;18.38;12.60;;;;;;;;;;5013630;28;20195;-48
2022/03/19 03:33:58;;;;;;;15.00;12.10;;;;;;;;;;5013811;28;20188;-47
2022/03/19 03:36:24;;;;;;;18.97;12.10;;;;;;;;;;5013770;28;20173;-48
2022/03/19 03:38:50;;;;;;;24.42;17.00;;;;;;;;;;5013493;28;20455;-47
2022/03/19 03:41:16;;;;;;;20.73;12.43;;;;;;;;;;5013327;28;20229;-47
2022/03/19 03:43:42;;;;;;;15.63;12.83;;;;;;;;;;4996056;28;20404;-49
2022/03/19 03:46:09;;;;;;;17.87;12.03;;;;;;;;;;5013652;28;20407;-46
2022/03/19 03:48:36;;;;;;;14.95;11.55;;;;;;;;;;5013483;28;20407;-47
2022/03/19 03:51:02;;;;;;;15.48;11.23;;;;;;;;;;5013096;28;20544;-46
2022/03/19 03:53:29;;;;;;;22.35;11.23;;;;;;;;;;5013291;28;20553;-46
2022/03/19 03:55:55;;;;;;;16.35;11.60;;;;;;;;;;5013369;28;20176;-50
2022/03/19 03:58:21;;;;;;;18.52;12.73;;;;;;;;;;5009733;28;20861;-49
2022/03/19 04:00:47;;;;;;;18.42;11.90;;;;;;;;;;5010331;28;20177;-47
2022/03/19 04:03:13;;;;;;;18.70;11.83;;;;;;;;;;5012915;28;20180;-49
2022/03/19 04:05:39;;;;;;;22.50;13.35;;;;;;;;;;5010430;28;20399;-49
2022/03/19 04:08:05;;;;;;;22.57;12.20;;;;;;;;;;5011264;28;20707;-47
2022/03/19 04:10:32;;;;;;;15.68;12.35;;;;;;;;;;5013129;28;20789;-47
2022/03/19 04:12:59;;;;;;;21.50;13.25;;;;;;;;;;5013193;28;20176;-49
2022/03/19 04:15:25;;;;;;;20.33;12.90;;;;;;;;;;5013171;28;20259;-47
2022/03/19 04:17:51;;;;;;;16.90;12.65;;;;;;;;;;5013347;28;20587;-46
2022/03/19 04:20:17;;;;;;;16.80;12.67;;;;;;;;;;5012999;28;20247;-46
2022/03/19 04:22:44;;;;;;;18.67;13.40;;;;;;;;;;5012867;28;20493;-47
2022/03/19 04:25:14;;;;;;;16.92;13.30;;;;;;;;;;5012928;28;20164;-46
2022/03/19 04:27:46;;;;;;;16.77;12.07;;;;;;;;;;5012972;28;20283;-47
2022/03/19 04:30:13;;;;;;;24.25;14.20;;;;;;;;;;5012844;28;20184;-47
2022/03/19 04:32:41;;;;;;;21.17;14.75;;;;;;;;;;5012614;28;20188;-47
2022/03/19 04:36:29;;;;;;;19.02;13.73;;;;;;;;;;5012866;28;20165;-49
2022/03/19 04:37:54;;;;;;;19.75;14.45;;;;;;;;;;5012628;28;20204;-48
2022/03/19 04:40:20;;;;;;;19.27;14.50;;;;;;;;;;5012544;28;20172;-49
2022/03/19 04:42:46;;;;;;;19.90;13.80;;;;;;;;;;5012450;28;20506;-46
2022/03/19 04:45:12;;;;;;;18.23;13.40;;;;;;;;;;5012555;28;20418;-46
2022/03/19 04:47:38;;;;;;;21.47;13.33;;;;;;;;;;5012543;28;20429;-46
2022/03/19 04:50:04;;;;;;;30.17;14.00;;;;;;;;;;5012345;28;20910;-47
2022/03/19 04:52:31;;;;;;;17.15;12.90;;;;;;;;;;5012375;28;20423;-46
2022/03/19 04:55:00;;;;;;;20.67;14.00;;;;;;;;;;5012497;28;20714;-50
2022/03/19 04:57:26;;;;;;;19.50;13.10;;;;;;;;;;5012287;28;20192;-47
2022/03/19 04:59:52;;;;;;;18.60;13.77;;;;;;;;;;5012091;28;20686;-46
2022/03/19 05:02:20;;;;;;;22.30;13.17;;;;;;;;;;5011993;28;20223;-47
2022/03/19 05:04:46;;;;;;;22.55;13.43;;;;;;;;;;5012290;28;20485;-47
2022/03/19 05:07:12;;;;;;;16.93;13.37;;;;;;;;;;5012260;28;20211;-48
2022/03/19 05:12:30;;;;;;;20.88;13.63;;;;;;;;;;5012190;28;20993;-46
2022/03/19 05:14:56;;;;;;;18.25;14.15;;;;;;;;;;5012153;28;20183;-46
2022/03/19 05:17:22;;;;;;;22.73;14.90;;;;;;;;;;5012103;28;20196;-47
2022/03/19 05:19:48;;;;;;;18.33;14.25;;;;;;;;;;5011870;28;20407;-50
2022/03/19 05:22:14;;;;;;;20.23;13.67;;;;;;;;;;5012043;28;20219;-47
2022/03/19 05:24:41;;;;;;;21.27;13.57;;;;;;;;;;5012090;28;20395;-46
2022/03/19 05:27:08;;;;;;;21.30;13.70;;;;;;;;;;5012681;28;20754;-48
2022/03/19 05:29:34;;;;;;;17.27;13.43;;;;;;;;;;5011621;28;20177;-48
2022/03/19 05:32:00;;;;;;;20.60;14.57;;;;;;;;;;5011812;28;20188;-49
2022/03/19 05:34:29;;;;;;;18.10;13.47;;;;;;;;;;5012064;28;20400;-50
2022/03/19 05:36:55;;;;;;;17.27;13.43;;;;;;;;;;5011842;28;20434;-49
2022/03/19 05:39:21;;;;;;;21.77;14.15;;;;;;;;;;5011664;28;20173;-49
2022/03/19 05:41:47;;;;;;;23.13;15.77;;;;;;;;;;5011848;28;20198;-49
2022/03/19 05:44:13;;;;;;;19.80;13.67;;;;;;;;;;5011730;28;20395;-49
2022/03/19 05:46:39;;;;;;;22.20;14.10;;;;;;;;;;5011818;28;20833;-48
2022/03/19 05:49:05;;;;;;;15.57;11.63;;;;;;;;;;5011674;28;20465;-49
2022/03/19 05:51:31;;;;;;;24.98;13.63;;;;;;;;;;5014034;28;20672;-49
2022/03/19 05:53:58;;;;;;;28.03;14.87;;;;;;;;;;5015666;28;20182;-48
2022/03/19 05:56:24;;;;;;;18.42;13.60;;;;;;;;;;5015676;28;20549;-49
2022/03/19 05:58:50;;;;;;;21.60;14.55;;;;;;;;;;5015447;28;20279;-49
2022/03/19 06:01:17;;;;;;;22.98;13.40;;;;;;;;;;5015221;28;20586;-49
2022/03/19 06:03:43;;;;;;;18.20;14.35;;;;;;;;;;5015501;28;20176;-49
2022/03/19 06:06:09;;;;;;;16.48;12.75;;;;;;;;;;5015438;28;20263;-49
2022/03/19 06:08:35;;;;;;;18.58;13.70;;;;;;;;;;5015495;28;20172;-51
2022/03/19 06:11:01;;;;;;;22.60;13.50;;;;;;;;;;5015127;28;20196;-49
2022/03/19 06:13:27;;;;;;;16.57;12.57;;;;;;;;;;5015157;28;20461;-49
2022/03/19 06:15:53;;;;;;;20.90;12.25;;;;;;;;;;5015189;28;20439;-49
2022/03/19 06:18:19;;;;;;;25.95;13.65;;;;;;;;;;5015077;28;20672;-49
2022/03/19 06:20:45;;;;;;;21.13;13.95;;;;;;;;;;5014930;28;20519;-50
2022/03/19 06:23:11;;;;;;;19.07;14.33;;;;;;;;;;5015085;28;20164;-49
2022/03/19 06:25:37;;;;;;;22.80;14.93;;;;;;;;;;5014919;28;20407;-49
2022/03/19 06:28:03;;;;;;;20.83;13.97;;;;;;;;;;5015412;28;20407;-49
2022/03/19 06:30:31;;;;;;;24.23;12.57;;;;;;;;;;5014705;28;20898;-49
2022/03/19 06:32:58;;;;;;;17.60;13.57;;;;;;;;;;5014883;28;20223;-49
2022/03/19 06:38:10;;;;;;;17.42;11.18;;;;;;;;;;5014371;28;20307;-48
2022/03/19 06:40:36;;;;;;;15.15;10.93;;;;;;;;;;5014127;28;20172;-49
2022/03/19 06:43:02;;;;;;;15.30;8.57;;;;;;;;;;5014280;28;20165;-50
2022/03/19 06:45:28;;;;;;;17.60;9.57;;;;;;;;;;5013115;28;20454;-49
2022/03/19 06:47:54;;;;;;;10.73;9.10;;;;;;;;;;5014624;28;20422;-50
2022/03/19 06:50:20;;;;;;;14.03;9.10;;;;;;;;;;5014410;28;20415;-49
2022/03/19 06:52:46;;;;;;;18.57;8.70;;;;;;;;;;5014518;28;20431;-50
2022/03/19 06:55:12;;;;;;;11.33;8.33;;;;;;;;;;5014456;28;20486;-49
2022/03/19 06:57:38;;;;;;;10.50;7.70;;;;;;;;;;5014445;28;20458;-49
2022/03/19 07:00:04;;;;;;;10.77;8.53;;;;;;;;;;5014363;28;20407;-49
2022/03/19 07:02:30;;;;;;;12.70;8.60;;;;;;;;;;5012448;28;20439;-50
2022/03/19 07:04:56;;;;;;;16.20;8.30;;;;;;;;;;5014085;28;20541;-50
2022/03/19 07:07:22;;;;;;;12.33;8.40;;;;;;;;;;5013754;28;20404;-49
2022/03/19 07:09:49;;;;;;;11.60;7.60;;;;;;;;;;5014503;28;20898;-50
2022/03/19 07:12:15;;;;;;;10.90;6.80;;;;;;;;;;5018801;28;20439;-52
2022/03/19 07:14:41;;;;;;;10.47;8.53;;;;;;;;;;5014223;28;20489;-48
2022/03/19 07:17:07;;;;;;;11.30;8.13;;;;;;;;;;5013985;28;20406;-48
2022/03/19 07:19:34;;;;;;;14.40;8.97;;;;;;;;;;5014168;28;20539;-49
2022/03/19 07:22:00;;;;;;;12.30;7.63;;;;;;;;;;5013840;28;20484;-48
2022/03/19 07:24:26;;;;;;;14.07;8.07;;;;;;;;;;5013852;28;20415;-49
2022/03/19 07:26:52;;;;;;;12.03;7.90;;;;;;;;;;5013967;28;20393;-49
2022/03/19 07:29:20;;;;;;;10.00;7.60;;;;;;;;;;5013744;28;20840;-48
2022/03/19 07:31:46;;;;;;;8.83;7.60;;;;;;;;;;5013573;28;20469;-51
2022/03/19 07:34:12;;;;;;;11.20;7.53;;;;;;;;;;5013787;28;20403;-49
2022/03/19 07:36:38;;;;;;;14.03;8.00;;;;;;;;;;5014330;28;20404;-49
2022/03/19 07:39:04;;;;;;;9.63;7.50;;;;;;;;;;5013621;28;20422;-49
2022/03/19 07:41:48;;;;;;;12.80;7.17;;;;;;;;;;5013585;28;20425;-49
2022/03/19 07:44:15;;;;;;;13.13;7.20;;;;;;;;;;5013662;28;20779;-48
2022/03/19 07:46:42;;;;;;;9.70;7.73;;;;;;;;;;5013794;28;20852;-48
2022/03/19 07:49:08;;;;;;;11.53;7.73;;;;;;;;;;5013573;28;20420;-49
2022/03/19 07:51:34;;;;;;;12.10;7.33;;;;;;;;;;5013357;28;20837;-50
2022/03/19 07:54:00;;;;;;;12.03;6.90;;;;;;;;;;5013481;28;20433;-49
2022/03/19 07:56:26;;;;;;;10.00;7.37;;;;;;;;;;5013313;28;20879;-49
2022/03/19 07:58:52;;;;;;;8.30;6.70;;;;;;;;;;5013302;28;20506;-49
2022/03/19 08:01:19;;;;;;;13.73;8.30;;;;;;;;;;5012516;28;20429;-50
2022/03/19 08:03:48;;;;;;;9.00;7.50;;;;;;;;;;4991699;28;20417;-50
2022/03/19 08:06:14;;;;;;;12.17;6.80;;;;;;;;;;4993734;28;20439;-48
2022/03/19 08:08:40;;;;;;;10.40;7.87;;;;;;;;;;4993625;28;20433;-49
2022/03/19 08:11:07;;;;;;;8.43;7.00;;;;;;;;;;4993201;28;20968;-50
2022/03/19 08:13:33;;;;;;;15.93;7.53;;;;;;;;;;4992221;28;20491;-49
2022/03/19 08:15:59;;;;;;;19.63;8.17;;;;;;;;;;5004706;28;20639;-49
2022/03/19 08:18:25;;;;;;;9.43;7.30;;;;;;;;;;5012670;28;20446;-50
2022/03/19 08:20:51;;;;;;;10.47;8.80;;;;;;;;;;5012679;28;20435;-50
2022/03/19 08:23:19;;;;;;;9.83;7.30;;;;;;;;;;5012502;28;20511;-51
2022/03/19 08:25:45;;;;;;;9.80;6.93;;;;;;;;;;4994964;28;20415;-47
2022/03/19 08:28:11;;;;;;;11.97;7.60;;;;;;;;;;5003963;28;20422;-47
2022/03/19 08:30:37;;;;;;;13.23;7.33;;;;;;;;;;5013452;28;20989;-47
2022/03/19 08:33:03;;;;;;;13.03;7.40;;;;;;;;;;5025806;28;20472;-49
2022/03/19 08:35:29;;;;;;;8.70;7.60;;;;;;;;;;5012659;28;20423;-48
2022/03/19 08:40:57;;;;;;;11.57;7.40;;;;;;;;;;4951551;29;20436;-47
2022/03/19 08:43:23;;;;;;;9.70;7.37;;;;;;;;;;5000449;28;20762;-48
2022/03/19 08:45:49;;;;;;;12.47;8.23;;;;;;;;;;5012408;28;20975;-46
2022/03/19 08:48:17;;;;;;;12.03;7.77;;;;;;;;;;5012162;28;20394;-47
2022/03/19 08:50:43;;;;;;;10.10;7.23;;;;;;;;;;5012141;28;20410;-47
2022/03/19 08:53:09;;;;;;;7.90;7.10;;;;;;;;;;5012047;28;20414;-47
2022/03/19 08:55:35;;;;;;;10.13;7.20;;;;;;;;;;5012205;28;20494;-47
2022/03/19 08:58:03;;;;;;;11.27;6.97;;;;;;;;;;5012052;28;20454;-51
2022/03/19 09:00:29;;;;;;;9.47;6.47;;;;;;;;;;5011970;28;20470;-52
2022/03/19 09:02:58;;;;;;;8.50;7.17;;;;;;;;;;5011784;28;20968;-50
2022/03/19 09:05:24;;;;;;;8.50;7.70;;;;;;;;;;5012201;28;20412;-52
2022/03/19 09:07:50;;;;;;;11.10;7.13;;;;;;;;;;5012100;28;20413;-52
2022/03/19 09:10:16;;;;;;;9.30;6.83;;;;;;;;;;5011731;28;20984;-52
2022/03/19 09:12:42;;;;;;;10.77;6.63;;;;;;;;;;5011805;28;20474;-49
2022/03/19 09:15:09;;;;;;;7.37;6.20;;;;;;;;;;5011917;28;20413;-50
2022/03/19 09:17:35;;;;;;;10.77;6.57;;;;;;;;;;5010976;28;20452;-51
2022/03/19 09:20:01;;;;;;;12.50;6.53;;;;;;;;;;5011665;28;20910;-52
2022/03/19 09:22:27;;;;;;;11.03;6.37;;;;;;;;;;5011952;28;20467;-48
2022/03/19 09:24:53;;;;;;;8.13;5.83;;;;;;;;;;5009693;28;20454;-51
2022/03/19 09:27:19;;;;;;;10.77;6.10;;;;;;;;;;5011210;28;20926;-48
2022/03/19 09:29:45;;;;;;;6.93;5.00;;;;;;;;;;5011790;28;20420;-49
2022/03/19 09:32:12;;;;;;;9.77;5.53;;;;;;;;;;5011446;28;20457;-49
2022/03/19 09:34:38;;;;;;;7.50;5.73;;;;;;;;;;5007131;28;20427;-48
2022/03/19 09:37:04;;;;;;;6.30;4.80;;;;;;;;;;5003471;28;20417;-48
2022/03/19 09:39:30;;;;;;;7.97;5.27;;;;;;;;;;5011560;28;20421;-51
2022/03/19 09:41:56;;;;;;;8.33;5.30;;;;;;;;;;5011313;28;20434;-51
2022/03/19 09:44:28;;;;;;;9.93;5.13;;;;;;;;;;5011500;28;20414;-51
2022/03/19 09:46:54;;;;;;;11.20;5.57;;;;;;;;;;5011593;28;20880;-49
2022/03/19 09:49:20;;;;;;;7.53;5.70;;;;;;;;;;4993820;28;20416;-51
2022/03/19 09:51:52;;;;;;;9.57;4.70;;;;;;;;;;5011466;28;20419;-50
2022/03/19 09:54:18;;;;;;;5.57;4.30;;;;;;;;;;5011500;28;20419;-47
2022/03/19 09:56:44;;;;;;;9.97;5.30;;;;;;;;;;5011325;28;20890;-48
2022/03/19 09:59:09;;;;;;;7.43;5.23;;;;;;;;;;5011479;28;20470;-47
2022/03/19 10:01:37;;;;;;;5.30;4.17;;;;;;;;;;5011377;28;20464;-50
2022/03/19 10:04:08;;;;;;;11.63;5.07;;;;;;;;;;5011125;28;20425;-50
2022/03/19 10:09:20;;;;;;;5.10;4.00;;;;;;;;;;4996641;28;20920;-50
2022/03/19 10:11:50;;;;;;;4.80;4.30;;;;;;;;;;5011293;28;20423;-51
2022/03/19 10:14:21;;;;;;;8.83;4.70;;;;;;;;;;5011184;28;20431;-52
2022/03/19 10:16:49;;;;;;;8.87;4.57;;;;;;;;;;5011276;28;20403;-52
2022/03/19 10:19:15;;;;;;;8.40;4.73;;;;;;;;;;5010995;28;20486;-51
2022/03/19 10:21:41;;;;;;;5.93;4.60;;;;;;;;;;5010994;28;20441;-50
2022/03/19 10:24:28;;;;;;;6.47;4.60;;;;;;;;;;5010970;28;20402;-50
2022/03/19 10:26:54;;;;;;;11.50;4.30;;;;;;;;;;5011128;28;20438;-50
2022/03/19 10:29:28;;;;;;;5.00;3.53;;;;;;;;;;5011189;28;20434;-49
2022/03/19 10:31:59;;;;;;;5.27;3.10;;;;;;;;;;5010947;28;20428;-51
2022/03/19 10:34:25;;;;;;;4.73;2.70;;;;;;;;;;5011158;28;20404;-49
2022/03/19 10:36:51;;;;;;;5.47;3.20;;;;;;;;;;5012340;28;20404;-49
2022/03/19 10:39:17;;;;;;;4.80;3.27;;;;;;;;;;5014750;28;20971;-50
2022/03/19 10:41:43;;;;;;;4.70;3.13;;;;;;;;;;5014372;28;20443;-49
2022/03/19 10:44:14;;;;;;;3.50;2.87;;;;;;;;;;5017624;28;20415;-49
2022/03/19 10:46:43;;;;;;;4.27;2.40;;;;;;;;;;5014201;28;20423;-49
2022/03/19 10:49:12;;;;;;;4.23;2.47;;;;;;;;;;5013919;28;20505;-50
2022/03/19 10:51:40;;;;;;;5.07;2.57;;;;;;;;;;5014060;28;20475;-49
2022/03/19 10:54:07;;;;;;;2.87;2.53;;;;;;;;;;5014231;28;20861;-48
2022/03/19 10:56:32;;;;;;;3.27;2.07;;;;;;;;;;5013704;28;20432;-48
2022/03/19 10:58:58;;;;;;;3.10;2.40;;;;;;;;;;5013161;28;20543;-48
2022/03/19 11:01:26;;;;;;;6.13;1.80;;;;;;;;;;5014072;28;20523;-47
2022/03/19 11:03:52;;;;;;;4.30;2.30;;;;;;;;;;4996179;28;20437;-52
2022/03/19 11:06:20;;;;;;;4.03;1.93;;;;;;;;;;5013741;28;20425;-49
2022/03/19 11:08:47;;;;;;;3.20;2.20;;;;;;;;;;4996728;28;20490;-47
2022/03/19 11:11:17;;;;;;;4.90;1.80;;;;;;;;;;5013553;28;20850;-47
2022/03/19 11:13:46;;;;;;;3.17;2.10;;;;;;;;;;5013745;28;20443;-48
2022/03/19 11:16:13;;;;;;;4.37;1.90;;;;;;;;;;5014063;28;20998;-47
2022/03/19 11:18:42;;;;;;;2.63;1.77;;;;;;;;;;5013999;28;20475;-48
2022/03/19 11:21:09;;;;;;;2.00;1.77;;;;;;;;;;5013623;28;20432;-48
2022/03/19 11:23:51;;;;;;;3.40;2.10;;;;;;;;;;4996208;28;20424;-51
2022/03/19 11:26:19;;;;;;;3.70;2.00;;;;;;;;;;5013754;28;20494;-48
2022/03/19 11:28:45;;;;;;;4.03;2.70;;;;;;;;;;5013520;28;20497;-49
2022/03/19 11:31:15;;;;;;;2.60;1.80;;;;;;;;;;5012567;28;20443;-53
2022/03/19 11:33:42;;;;;;;3.83;2.17;;;;;;;;;;5013355;28;20419;-53
2022/03/19 11:36:09;;;;;;;8.10;2.40;;;;;;;;;;5013184;28;20420;-53
2022/03/19 11:38:42;;;;;;;2.47;2.13;;;;;;;;;;5013584;28;20450;-53
2022/03/19 11:41:24;;;;;;;4.03;2.13;;;;;;;;;;5013316;28;20942;-53
2022/03/19 11:43:51;;;;;;;5.10;1.73;;;;;;;;;;5012803;28;20767;-52
2022/03/19 11:46:17;;;;;;;3.37;2.20;;;;;;;;;;5013848;28;20984;-51
2022/03/19 11:48:45;;;;;;;3.97;2.23;;;;;;;;;;5012943;28;20501;-51
2022/03/19 11:51:17;;;;;;;4.10;2.07;;;;;;;;;;4994851;28;20558;-52
2022/03/19 11:53:50;;;;;;;3.23;2.23;;;;;;;;;;4995341;28;20413;-51
2022/03/19 11:56:19;;;;;;;8.67;2.20;;;;;;;;;;5013144;28;20494;-53
2022/03/19 11:58:45;;;;;;;5.27;2.10;;;;;;;;;;5013052;28;20821;-52
2022/03/19 12:01:11;;;;;;;4.40;2.00;;;;;;;;;;5012973;28;20445;-51
2022/03/19 12:03:56;;;;;;;5.10;2.20;;;;;;;;;;5009696;28;20490;-52
2022/03/19 12:06:30;;;;;;;5.50;2.03;;;;;;;;;;4994797;28;20419;-52
2022/03/19 12:08:56;;;;;;;3.80;1.90;;;;;;;;;;5013120;28;20440;-52
2022/03/19 12:11:22;;;;;;;4.30;1.77;;;;;;;;;;5012865;28;20451;-53
2022/03/19 12:13:49;;;;;;;4.87;1.90;;;;;;;;;;5014858;28;20429;-52
2022/03/19 12:16:35;;;;;;;4.53;2.00;;;;;;;;;;5012509;28;20558;-50
2022/03/19 12:19:01;;;;;;;4.67;2.03;;;;;;;;;;5011926;28;20466;-51
2022/03/19 12:21:27;;;;;;;3.77;2.20;;;;;;;;;;5012641;28;20419;-52
2022/03/19 12:24:14;;;;;;;5.53;2.50;;;;;;;;;;5012803;28;20921;-53
2022/03/19 12:26:41;;;;;;;5.73;2.67;;;;;;;;;;5013082;28;20407;-52
2022/03/19 12:29:11;;;;;;;6.17;2.33;;;;;;;;;;5012821;28;20406;-53
2022/03/19 12:31:41;;;;;;;2.77;2.30;;;;;;;;;;5012405;28;20502;-53
2022/03/19 12:34:07;;;;;;;5.13;2.23;;;;;;;;;;5012519;28;20482;-53
2022/03/19 12:36:33;;;;;;;5.53;2.20;;;;;;;;;;5012596;28;20905;-52
2022/03/19 12:39:04;;;;;;;3.57;2.10;;;;;;;;;;5012449;28;20458;-52
2022/03/19 12:41:31;;;;;;;3.00;1.87;;;;;;;;;;5012775;28;20919;-53
2022/03/19 12:44:02;;;;;;;3.07;1.87;;;;;;;;;;5012640;28;20409;-53
2022/03/19 12:46:29;;;;;;;3.63;2.67;;;;;;;;;;5011206;28;20411;-53
2022/03/19 12:49:03;;;;;;;4.30;2.30;;;;;;;;;;5001535;28;20414;-53
2022/03/19 12:51:30;;;;;;;8.07;2.20;;;;;;;;;;5011930;28;20981;-52
2022/03/19 12:53:57;;;;;;;6.93;2.20;;;;;;;;;;4999596;28;20416;-53
2022/03/19 12:56:27;;;;;;;3.57;2.33;;;;;;;;;;5000870;28;20420;-52
2022/03/19 12:58:55;;;;;;;5.23;2.17;;;;;;;;;;5012434;28;20545;-51
2022/03/19 13:01:22;;;;;;;2.33;1.87;;;;;;;;;;5003332;28;20439;-52
2022/03/19 13:03:52;;;;;;;2.83;1.90;;;;;;;;;;4999098;28;20440;-50
2022/03/19 13:06:27;;;;;;;4.43;2.10;;;;;;;;;;5011113;28;20490;-50
2022/03/19 13:08:53;;;;;;;2.57;1.60;;;;;;;;;;5007047;28;20441;-50
2022/03/19 13:11:19;;;;;;;2.83;2.40;;;;;;;;;;5000088;28;20431;-51
2022/03/19 13:13:47;;;;;;;2.20;1.97;;;;;;;;;;5000373;28;20463;-49
2022/03/19 13:16:25;;;;;;;3.63;2.30;;;;;;;;;;5009083;28;20834;-51
2022/03/19 13:18:56;;;;;;;7.90;2.37;;;;;;;;;;5011850;28;20451;-51
2022/03/19 13:21:22;;;;;;;4.60;2.27;;;;;;;;;;5011543;28;20423;-50
2022/03/19 13:23:48;;;;;;;2.67;1.97;;;;;;;;;;5010984;28;20430;-51
2022/03/19 13:26:17;;;;;;;2.00;1.70;;;;;;;;;;5012422;28;20442;-53
2022/03/19 13:29:02;;;;;;;3.10;2.00;;;;;;;;;;5011855;28;20834;-48
2022/03/19 13:31:28;;;;;;;2.20;2.00;;;;;;;;;;5011925;28;20422;-52
2022/03/19 13:34:00;;;;;;;2.67;2.40;;;;;;;;;;5011882;28;20415;-52
2022/03/19 13:36:28;;;;;;;5.77;2.20;;;;;;;;;;5011778;28;20427;-50
2022/03/19 13:38:54;;;;;;;3.00;2.20;;;;;;;;;;5012036;28;20469;-49
2022/03/19 13:41:20;;;;;;;2.10;1.80;;;;;;;;;;5011295;28;20513;-50
2022/03/19 13:43:46;;;;;;;3.00;1.90;;;;;;;;;;5011864;28;20399;-48
2022/03/19 13:46:20;;;;;;;5.50;2.77;;;;;;;;;;5011368;28;20410;-52
2022/03/19 13:48:48;;;;;;;4.00;2.40;;;;;;;;;;5009923;28;20415;-50
2022/03/19 13:51:14;;;;;;;2.17;2.07;;;;;;;;;;5009145;28;20438;-50
2022/03/19 13:54:00;;;;;;;3.23;2.30;;;;;;;;;;5011031;28;20438;-51
2022/03/19 13:56:27;;;;;;;2.90;2.60;;;;;;;;;;5010961;28;20415;-51
2022/03/19 13:59:00;;;;;;;2.70;2.13;;;;;;;;;;5011408;28;20465;-51
2022/03/19 14:01:31;;;;;;;2.87;2.27;;;;;;;;;;5007573;28;20442;-50
2022/03/19 14:03:57;;;;;;;2.70;2.50;;;;;;;;;;5011196;28;20421;-50
2022/03/19 14:06:32;;;;;;;4.87;2.50;;;;;;;;;;5011536;28;20408;-50
2022/03/19 14:08:58;;;;;;;5.80;2.70;;;;;;;;;;5011475;28;20425;-50
2022/03/19 14:11:24;;;;;;;4.87;3.00;;;;;;;;;;5011873;28;20458;-51
2022/03/19 14:13:50;;;;;;;4.27;3.27;;;;;;;;;;5015225;28;20485;-50
2022/03/19 14:16:16;;;;;;;6.33;2.60;;;;;;;;;;5015022;28;20407;-50
2022/03/19 14:18:46;;;;;;;3.10;2.90;;;;;;;;;;5015101;28;20458;-52
2022/03/19 14:21:12;;;;;;;4.97;2.90;;;;;;;;;;5014705;28;20423;-50
2022/03/19 14:23:40;;;;;;;3.50;3.10;;;;;;;;;;5014702;28;20426;-50
2022/03/19 14:26:08;;;;;;;3.50;3.20;;;;;;;;;;5014655;28;20414;-52
2022/03/19 14:28:34;;;;;;;3.23;2.33;;;;;;;;;;5014937;28;20425;-52
2022/03/19 14:31:00;;;;;;;4.83;3.10;;;;;;;;;;5014696;28;21132;-50
2022/03/19 14:33:26;;;;;;;4.30;2.97;;;;;;;;;;5014580;28;20399;-51
2022/03/19 14:35:53;;;;;;;4.30;3.13;;;;;;;;;;5013344;28;20414;-50
2022/03/19 14:38:33;;;;;;;5.90;3.40;;;;;;;;;;5014791;28;20511;-50
2022/03/19 14:41:00;;;;;;;2.97;2.67;;;;;;;;;;5014526;28;20427;-51
2022/03/19 14:43:27;;;;;;;5.73;2.90;;;;;;;;;;5014670;28;20431;-51